Time;durP1;ratioP1;P1;durP2;ratioP2;P2;SDS_P1;SDS_P2;PMS_P1;PMS_P2;Temp;Humidity;BMP_temperature;BMP_pressure;BME280_temperature;BME280_humidity;BME280_pressure;Samples;Min_cycle;Max_cycle;Signal;HPM_P1;HPM_P2
2021/05/12 00:00:28;;;;;;;7.32;5.72;;;;;;;;;;5047270;28;20052;-84
2021/05/12 00:02:54;;;;;;;9.15;5.20;;;;;;;;;;5032012;28;20086;-84
2021/05/12 00:05:21;;;;;;;10.40;6.60;;;;;;;;;;5047184;28;20034;-84
2021/05/12 00:07:47;;;;;;;10.50;6.10;;;;;;;;;;5030572;28;20125;-84
2021/05/12 00:10:13;;;;;;;11.30;6.15;;;;;;;;;;5047210;28;20094;-84
2021/05/12 00:12:41;;;;;;;10.23;6.15;;;;;;;;;;5047173;28;20042;-84
2021/05/12 00:15:09;;;;;;;10.25;5.40;;;;;;;;;;5047318;28;20042;-85
2021/05/12 00:17:37;;;;;;;10.88;6.50;;;;;;;;;;5047847;28;20041;-83
2021/05/12 00:20:04;;;;;;;8.07;5.57;;;;;;;;;;5035671;28;20037;-85
2021/05/12 00:22:38;;;;;;;8.93;5.85;;;;;;;;;;5050997;28;20047;-85
2021/05/12 00:25:05;;;;;;;8.52;6.03;;;;;;;;;;5050169;28;20068;-84
2021/05/12 00:27:31;;;;;;;10.18;6.75;;;;;;;;;;5050933;28;20477;-85
2021/05/12 00:29:57;;;;;;;11.65;7.15;;;;;;;;;;5050914;28;20452;-84
2021/05/12 00:32:24;;;;;;;12.60;7.88;;;;;;;;;;5050859;28;20042;-84
2021/05/12 00:34:50;;;;;;;11.82;6.75;;;;;;;;;;5035434;28;20481;-84
2021/05/12 00:37:16;;;;;;;12.18;7.13;;;;;;;;;;5050613;28;20045;-84
2021/05/12 00:39:42;;;;;;;14.88;8.80;;;;;;;;;;5050379;28;20057;-84
2021/05/12 00:42:08;;;;;;;12.48;7.68;;;;;;;;;;5050725;28;20050;-84
2021/05/12 00:44:34;;;;;;;12.63;7.93;;;;;;;;;;5050605;28;20034;-84
2021/05/12 00:47:02;;;;;;;11.65;7.40;;;;;;;;;;5050556;28;20108;-85
2021/05/12 00:49:28;;;;;;;15.00;8.80;;;;;;;;;;5050469;28;20504;-84
2021/05/12 00:51:54;;;;;;;14.57;8.88;;;;;;;;;;5035123;28;20042;-85
2021/05/12 00:54:20;;;;;;;14.63;8.27;;;;;;;;;;5035051;28;20041;-85
2021/05/12 00:56:46;;;;;;;9.02;6.55;;;;;;;;;;5050398;28;20069;-84
2021/05/12 00:59:12;;;;;;;13.55;8.45;;;;;;;;;;5050319;28;20044;-84
2021/05/12 01:01:39;;;;;;;13.35;7.80;;;;;;;;;;5050481;28;20037;-84
2021/05/12 01:04:07;;;;;;;9.27;6.70;;;;;;;;;;5050392;28;20068;-85
2021/05/12 01:06:33;;;;;;;10.60;6.95;;;;;;;;;;5034731;28;20037;-85
2021/05/12 01:08:59;;;;;;;15.30;7.47;;;;;;;;;;5050153;28;20560;-85
2021/05/12 01:11:27;;;;;;;13.20;7.82;;;;;;;;;;5050115;28;20037;-84
2021/05/12 01:13:55;;;;;;;12.95;8.15;;;;;;;;;;5049859;28;20072;-85
2021/05/12 01:16:21;;;;;;;13.68;8.95;;;;;;;;;;5049954;28;20041;-84
2021/05/12 01:18:47;;;;;;;18.50;10.07;;;;;;;;;;5050143;28;20068;-84
2021/05/12 01:21:13;;;;;;;16.33;9.00;;;;;;;;;;5049740;28;20113;-84
2021/05/12 01:23:40;;;;;;;13.27;8.52;;;;;;;;;;5034867;28;20059;-84
2021/05/12 01:26:08;;;;;;;16.45;10.10;;;;;;;;;;5049792;28;20146;-84
2021/05/12 01:28:35;;;;;;;16.17;9.10;;;;;;;;;;5049882;28;20442;-85
2021/05/12 01:31:05;;;;;;;18.63;10.15;;;;;;;;;;5049026;28;20045;-84
2021/05/12 01:33:31;;;;;;;16.23;10.02;;;;;;;;;;5034367;28;20059;-84
2021/05/12 01:35:57;;;;;;;17.55;9.82;;;;;;;;;;5049658;28;20095;-84
2021/05/12 01:38:23;;;;;;;17.45;11.07;;;;;;;;;;5034267;28;20075;-84
2021/05/12 01:40:49;;;;;;;14.93;9.68;;;;;;;;;;5049345;28;20061;-85
2021/05/12 01:43:15;;;;;;;14.73;8.82;;;;;;;;;;5034276;28;20041;-83
2021/05/12 01:45:42;;;;;;;15.27;9.95;;;;;;;;;;5049571;28;20149;-85
2021/05/12 01:48:08;;;;;;;19.17;11.95;;;;;;;;;;5049415;28;20041;-85
2021/05/12 01:50:34;;;;;;;17.85;10.27;;;;;;;;;;5049317;28;20525;-85
2021/05/12 01:53:00;;;;;;;18.00;11.70;;;;;;;;;;5049341;28;20045;-84
2021/05/12 01:55:26;;;;;;;18.83;11.25;;;;;;;;;;5049279;28;20507;-84
2021/05/12 01:57:52;;;;;;;17.83;10.38;;;;;;;;;;5049190;28;20034;-85
2021/05/12 02:00:29;;;;;;;18.20;9.13;;;;;;;;;;5049146;28;20045;-84
2021/05/12 02:02:55;;;;;;;17.85;10.52;;;;;;;;;;5049000;28;20099;-85
2021/05/12 02:05:40;;;;;;;17.50;9.68;;;;;;;;;;5049106;28;20044;-85
2021/05/12 02:08:07;;;;;;;19.20;11.13;;;;;;;;;;5033671;28;20041;-84
2021/05/12 02:10:33;;;;;;;15.73;10.38;;;;;;;;;;5049053;28;20480;-85
2021/05/12 02:12:59;;;;;;;17.02;10.35;;;;;;;;;;5048946;28;20120;-84
2021/05/12 02:18:11;;;;;;;16.58;10.40;;;;;;;;;;5046696;28;20370;-85
2021/05/12 02:20:38;;;;;;;15.90;9.25;;;;;;;;;;5048754;28;20493;-84
2021/05/12 02:23:04;;;;;;;19.95;11.55;;;;;;;;;;5048775;28;20068;-84
2021/05/12 02:25:31;;;;;;;20.10;11.10;;;;;;;;;;5048686;28;20033;-85
2021/05/12 02:27:57;;;;;;;16.67;10.75;;;;;;;;;;5033159;28;20041;-84
2021/05/12 02:30:23;;;;;;;16.85;10.25;;;;;;;;;;5048700;28;20041;-84
2021/05/12 02:32:49;;;;;;;18.02;11.00;;;;;;;;;;5048543;28;20091;-85
2021/05/12 02:35:15;;;;;;;16.73;10.23;;;;;;;;;;5048614;28;20045;-85
2021/05/12 02:37:41;;;;;;;18.20;10.90;;;;;;;;;;5033215;28;20042;-84
2021/05/12 02:40:09;;;;;;;13.68;9.70;;;;;;;;;;5048172;28;20085;-85
2021/05/12 02:42:35;;;;;;;17.83;11.23;;;;;;;;;;5047278;28;20086;-85
2021/05/12 02:45:01;;;;;;;17.90;11.30;;;;;;;;;;5048360;28;20469;-84
2021/05/12 02:47:27;;;;;;;17.38;11.32;;;;;;;;;;5048331;28;20454;-84
2021/05/12 02:49:53;;;;;;;17.83;10.80;;;;;;;;;;5032956;28;20498;-84
2021/05/12 02:52:19;;;;;;;17.13;10.88;;;;;;;;;;5048306;28;20374;-84
2021/05/12 02:54:45;;;;;;;17.17;10.60;;;;;;;;;;5048290;28;20037;-85
2021/05/12 02:57:11;;;;;;;18.35;11.57;;;;;;;;;;5048142;28;20038;-85
2021/05/12 02:59:37;;;;;;;19.85;11.65;;;;;;;;;;5048025;28;20041;-84
2021/05/12 03:02:03;;;;;;;19.42;10.85;;;;;;;;;;5048117;28;20037;-85
2021/05/12 03:04:30;;;;;;;17.58;10.55;;;;;;;;;;5048051;28;20045;-85
2021/05/12 03:06:56;;;;;;;18.35;10.40;;;;;;;;;;5047906;28;20128;-85
2021/05/12 03:09:23;;;;;;;17.25;10.82;;;;;;;;;;5047886;28;20048;-85
2021/05/12 03:11:49;;;;;;;19.27;11.00;;;;;;;;;;5047784;28;20447;-84
2021/05/12 03:14:15;;;;;;;19.35;11.32;;;;;;;;;;5048030;28;20033;-85
2021/05/12 03:16:43;;;;;;;23.17;12.60;;;;;;;;;;5047699;28;20042;-84
2021/05/12 03:19:09;;;;;;;19.20;12.45;;;;;;;;;;5047913;28;20450;-84
2021/05/12 03:21:35;;;;;;;17.67;11.23;;;;;;;;;;5047664;28;20050;-84
2021/05/12 03:24:01;;;;;;;22.92;12.20;;;;;;;;;;5047665;28;20073;-85
2021/05/12 03:26:27;;;;;;;17.75;11.55;;;;;;;;;;5032226;28;20095;-84
2021/05/12 03:28:53;;;;;;;20.70;11.90;;;;;;;;;;5047602;28;20038;-84
2021/05/12 03:31:20;;;;;;;18.38;11.43;;;;;;;;;;5047571;28;20041;-83
2021/05/12 03:33:46;;;;;;;22.05;12.80;;;;;;;;;;5047721;28;20069;-84
2021/05/12 03:36:12;;;;;;;22.40;12.32;;;;;;;;;;5047645;28;20038;-85
2021/05/12 03:38:38;;;;;;;24.75;13.27;;;;;;;;;;5047336;28;20041;-84
2021/05/12 03:41:04;;;;;;;22.73;12.63;;;;;;;;;;5047158;28;20548;-85
2021/05/12 03:43:30;;;;;;;24.25;12.50;;;;;;;;;;5047355;28;20049;-84
2021/05/12 03:45:56;;;;;;;27.25;13.57;;;;;;;;;;5047491;28;20056;-85
2021/05/12 03:48:22;;;;;;;23.75;13.18;;;;;;;;;;5047306;28;20200;-85
2021/05/12 03:50:48;;;;;;;22.60;13.30;;;;;;;;;;5047382;28;20073;-84
2021/05/12 03:53:15;;;;;;;25.30;13.70;;;;;;;;;;5049258;28;20087;-84
2021/05/12 03:55:41;;;;;;;24.30;13.43;;;;;;;;;;5051559;28;20187;-84
2021/05/12 03:58:08;;;;;;;23.08;13.18;;;;;;;;;;5051522;28;20140;-85
2021/05/12 04:00:34;;;;;;;26.23;13.07;;;;;;;;;;5051386;28;20124;-85
2021/05/12 04:03:00;;;;;;;26.85;13.10;;;;;;;;;;5051422;28;20447;-84
2021/05/12 04:05:26;;;;;;;25.30;12.82;;;;;;;;;;5051386;28;20075;-85
2021/05/12 04:07:52;;;;;;;23.25;12.55;;;;;;;;;;5035789;28;20404;-84
2021/05/12 04:10:19;;;;;;;24.65;13.43;;;;;;;;;;5051327;28;20511;-84
2021/05/12 04:12:45;;;;;;;24.88;13.98;;;;;;;;;;5051361;28;20080;-84
2021/05/12 04:15:11;;;;;;;26.70;13.43;;;;;;;;;;5051109;28;20044;-85
2021/05/12 04:17:39;;;;;;;25.70;14.02;;;;;;;;;;5050935;28;20048;-84
2021/05/12 04:20:06;;;;;;;23.67;13.90;;;;;;;;;;5050973;28;20512;-85
2021/05/12 04:22:36;;;;;;;26.25;14.32;;;;;;;;;;5050537;28;20104;-84
2021/05/12 04:25:04;;;;;;;23.08;13.20;;;;;;;;;;5035727;28;20370;-84
2021/05/12 04:27:30;;;;;;;27.58;14.07;;;;;;;;;;5050912;28;20040;-84
2021/05/12 04:29:57;;;;;;;23.58;12.38;;;;;;;;;;5050872;28;20041;-85
2021/05/12 04:32:23;;;;;;;29.17;13.43;;;;;;;;;;5050890;28;20404;-83
2021/05/12 04:34:49;;;;;;;25.15;13.40;;;;;;;;;;5050964;28;20117;-84
2021/05/12 04:37:15;;;;;;;27.98;13.68;;;;;;;;;;5035479;28;20048;-84
2021/05/12 04:39:41;;;;;;;29.70;14.50;;;;;;;;;;5050538;28;20129;-84
2021/05/12 04:42:07;;;;;;;28.02;14.27;;;;;;;;;;5050857;28;20034;-85
2021/05/12 04:44:33;;;;;;;35.25;14.23;;;;;;;;;;5050605;28;20041;-84
2021/05/12 04:46:59;;;;;;;25.60;13.93;;;;;;;;;;5050573;28;20113;-84
2021/05/12 04:49:25;;;;;;;24.75;14.18;;;;;;;;;;5050487;28;20041;-85
2021/05/12 04:51:51;;;;;;;24.23;13.80;;;;;;;;;;5050475;28;20051;-84
2021/05/12 04:54:17;;;;;;;25.20;14.63;;;;;;;;;;5050927;28;20095;-84
2021/05/12 04:56:43;;;;;;;26.98;13.70;;;;;;;;;;5050336;28;20515;-84
2021/05/12 04:59:10;;;;;;;27.20;15.35;;;;;;;;;;5050202;28;20049;-84
2021/05/12 05:01:36;;;;;;;24.70;13.57;;;;;;;;;;5050273;28;20497;-84
2021/05/12 05:04:02;;;;;;;26.20;13.63;;;;;;;;;;5034027;28;20041;-84
2021/05/12 05:06:28;;;;;;;26.58;13.77;;;;;;;;;;5049908;28;20045;-84
2021/05/12 05:08:54;;;;;;;22.50;12.20;;;;;;;;;;5050215;28;20120;-84
2021/05/12 05:11:20;;;;;;;22.05;12.20;;;;;;;;;;5035019;28;20125;-84
2021/05/12 05:13:46;;;;;;;27.50;13.27;;;;;;;;;;5050229;28;20029;-84
2021/05/12 05:16:12;;;;;;;21.60;12.50;;;;;;;;;;5050052;28;20056;-84
2021/05/12 05:18:40;;;;;;;20.05;12.25;;;;;;;;;;5049789;28;20444;-84
2021/05/12 05:21:07;;;;;;;25.58;14.18;;;;;;;;;;5049863;28;20069;-84
2021/05/12 05:23:34;;;;;;;24.73;12.50;;;;;;;;;;5049663;28;20045;-82
2021/05/12 05:26:00;;;;;;;23.98;13.60;;;;;;;;;;5049798;28;20041;-84
2021/05/12 05:28:26;;;;;;;26.42;12.50;;;;;;;;;;5034533;28;20048;-84
2021/05/12 05:30:52;;;;;;;21.98;12.40;;;;;;;;;;5049868;28;20124;-84
2021/05/12 05:33:19;;;;;;;22.92;13.45;;;;;;;;;;5050021;28;20037;-84
2021/05/12 05:35:45;;;;;;;25.25;12.52;;;;;;;;;;5049726;28;20136;-84
2021/05/12 05:38:12;;;;;;;20.05;11.95;;;;;;;;;;5049410;28;20120;-84
2021/05/12 05:40:38;;;;;;;21.10;12.52;;;;;;;;;;5049398;28;20125;-84
2021/05/12 05:43:07;;;;;;;23.50;13.15;;;;;;;;;;5049626;28;20033;-84
2021/05/12 05:45:33;;;;;;;20.35;12.10;;;;;;;;;;5034168;28;20046;-86
2021/05/12 05:47:59;;;;;;;19.50;12.10;;;;;;;;;;5049247;28;20064;-84
2021/05/12 05:50:25;;;;;;;18.85;11.60;;;;;;;;;;5049358;28;20037;-84
2021/05/12 05:52:55;;;;;;;16.55;10.50;;;;;;;;;;5049701;28;20033;-85
2021/05/12 05:55:21;;;;;;;16.13;10.35;;;;;;;;;;5049437;28;20033;-85
2021/05/12 05:57:50;;;;;;;17.67;11.43;;;;;;;;;;5049189;28;20041;-85
2021/05/12 06:00:18;;;;;;;15.05;10.05;;;;;;;;;;5048878;28;20042;-85
2021/05/12 06:02:47;;;;;;;15.32;9.98;;;;;;;;;;5049303;28;20033;-84
2021/05/12 06:05:13;;;;;;;15.23;9.63;;;;;;;;;;5049160;28;20045;-84
2021/05/12 06:07:39;;;;;;;15.00;10.27;;;;;;;;;;5049031;28;20115;-84
2021/05/12 06:10:06;;;;;;;14.27;9.55;;;;;;;;;;5033616;28;20037;-84
2021/05/12 06:12:32;;;;;;;12.63;9.30;;;;;;;;;;5048878;28;20049;-85
2021/05/12 06:14:58;;;;;;;14.38;8.80;;;;;;;;;;5048774;28;20054;-85
2021/05/12 06:17:26;;;;;;;10.43;8.25;;;;;;;;;;5048819;28;20397;-85
2021/05/12 06:19:54;;;;;;;12.48;8.00;;;;;;;;;;5048967;28;20117;-85
2021/05/12 06:22:26;;;;;;;9.55;7.50;;;;;;;;;;5048055;28;20037;-84
2021/05/12 06:24:52;;;;;;;11.25;7.07;;;;;;;;;;5033531;28;20041;-85
2021/05/12 06:27:19;;;;;;;10.15;7.65;;;;;;;;;;5048577;28;20111;-84
2021/05/12 06:29:45;;;;;;;10.85;6.55;;;;;;;;;;5048415;28;20521;-85
2021/05/12 06:32:11;;;;;;;8.63;6.47;;;;;;;;;;5048657;28;20029;-85
2021/05/12 06:34:41;;;;;;;11.13;6.30;;;;;;;;;;5031928;28;20091;-85
2021/05/12 06:37:07;;;;;;;9.23;6.57;;;;;;;;;;5033109;28;20038;-85
2021/05/12 06:39:33;;;;;;;8.45;6.10;;;;;;;;;;5032902;28;20091;-85
2021/05/12 06:41:59;;;;;;;9.00;6.30;;;;;;;;;;5048347;28;20045;-85
2021/05/12 06:44:25;;;;;;;9.60;6.25;;;;;;;;;;5048622;28;20064;-85
2021/05/12 06:46:52;;;;;;;7.30;5.18;;;;;;;;;;5033057;28;20033;-85
2021/05/12 06:49:18;;;;;;;6.57;5.13;;;;;;;;;;5032873;28;20044;-85
2021/05/12 06:51:45;;;;;;;8.15;4.80;;;;;;;;;;5048141;28;20044;-85
2021/05/12 06:54:11;;;;;;;8.88;4.90;;;;;;;;;;5048137;28;20036;-85
2021/05/12 06:56:37;;;;;;;7.05;4.35;;;;;;;;;;5047884;28;20038;-85
2021/05/12 06:59:03;;;;;;;10.63;4.70;;;;;;;;;;5032680;28;20473;-85
2021/05/12 07:01:29;;;;;;;9.10;4.95;;;;;;;;;;5047948;28;20033;-85
2021/05/12 07:03:55;;;;;;;10.90;4.38;;;;;;;;;;5032913;28;20472;-85
2021/05/12 07:06:21;;;;;;;10.20;4.47;;;;;;;;;;5047870;28;20038;-85
2021/05/12 07:08:50;;;;;;;7.30;3.83;;;;;;;;;;5047960;28;20120;-85
2021/05/12 07:11:16;;;;;;;10.70;4.18;;;;;;;;;;5047312;28;20045;-84
2021/05/12 07:13:44;;;;;;;7.47;3.95;;;;;;;;;;5032533;28;20034;-85
2021/05/12 07:16:10;;;;;;;11.05;4.45;;;;;;;;;;5032495;28;20473;-86
2021/05/12 07:18:36;;;;;;;8.00;3.80;;;;;;;;;;5047591;28;20045;-84
2021/05/12 07:21:03;;;;;;;6.25;4.30;;;;;;;;;;5047613;28;20045;-84
2021/05/12 07:23:32;;;;;;;8.65;3.90;;;;;;;;;;5031114;28;20099;-85
2021/05/12 07:25:58;;;;;;;7.18;3.63;;;;;;;;;;5047491;28;20072;-85
2021/05/12 07:28:25;;;;;;;12.73;4.13;;;;;;;;;;5047313;28;20121;-85
2021/05/12 07:30:51;;;;;;;8.65;3.50;;;;;;;;;;5047574;28;20492;-85
2021/05/12 07:33:17;;;;;;;9.27;3.72;;;;;;;;;;5047738;28;20041;-85
2021/05/12 07:35:43;;;;;;;8.40;3.20;;;;;;;;;;5030900;28;20099;-85
2021/05/12 07:38:16;;;;;;;4.90;3.25;;;;;;;;;;5046476;28;20046;-85
2021/05/12 07:40:42;;;;;;;7.05;2.90;;;;;;;;;;5047252;28;20061;-84
2021/05/12 07:43:10;;;;;;;8.25;2.95;;;;;;;;;;5047477;28;20033;-85
2021/05/12 07:45:39;;;;;;;5.10;2.60;;;;;;;;;;5046874;28;20120;-85
2021/05/12 07:48:05;;;;;;;5.80;2.47;;;;;;;;;;5047327;28;20053;-85
2021/05/12 07:50:31;;;;;;;6.25;2.08;;;;;;;;;;5047308;28;20053;-85
2021/05/12 07:52:59;;;;;;;6.63;1.63;;;;;;;;;;5047389;28;20045;-85
2021/05/12 07:55:25;;;;;;;3.95;1.60;;;;;;;;;;5032226;28;20041;-85
2021/05/12 07:58:00;;;;;;;3.38;1.70;;;;;;;;;;5032040;28;20405;-85
2021/05/12 08:00:26;;;;;;;5.53;1.90;;;;;;;;;;5047410;28;20049;-85
2021/05/12 08:03:06;;;;;;;4.63;1.98;;;;;;;;;;5045535;28;20045;-85
2021/05/12 08:05:33;;;;;;;5.15;1.63;;;;;;;;;;5031964;28;20056;-85
2021/05/12 08:08:19;;;;;;;3.80;1.50;;;;;;;;;;5031059;28;20053;-85
2021/05/12 08:10:46;;;;;;;4.93;1.80;;;;;;;;;;5047109;28;20049;-85
2021/05/12 08:13:12;;;;;;;4.75;1.98;;;;;;;;;;5047144;28;20044;-85
2021/05/12 08:15:38;;;;;;;3.72;1.40;;;;;;;;;;5047157;28;20033;-85
2021/05/12 08:18:04;;;;;;;8.38;1.50;;;;;;;;;;5046992;28;20060;-86
2021/05/12 08:20:35;;;;;;;3.40;1.33;;;;;;;;;;5030565;28;20140;-85
2021/05/12 08:23:03;;;;;;;4.75;1.48;;;;;;;;;;5030564;28;20354;-85
2021/05/12 08:25:29;;;;;;;3.28;1.55;;;;;;;;;;5047284;28;20048;-85
2021/05/12 08:27:56;;;;;;;4.97;1.42;;;;;;;;;;5047161;28;20041;-86
2021/05/12 08:30:24;;;;;;;5.30;1.48;;;;;;;;;;5031731;28;20033;-85
2021/05/12 08:32:51;;;;;;;2.65;1.40;;;;;;;;;;5046776;28;20128;-86
2021/05/12 08:35:37;;;;;;;3.72;1.60;;;;;;;;;;5030998;28;20095;-86
2021/05/12 08:38:06;;;;;;;3.47;1.40;;;;;;;;;;5046476;28;20497;-86
2021/05/12 08:40:33;;;;;;;4.90;1.30;;;;;;;;;;5035102;28;20571;-86
2021/05/12 08:43:01;;;;;;;4.65;1.90;;;;;;;;;;5035453;28;20393;-85
2021/05/12 08:45:32;;;;;;;;;;;;;;;;;;5034370;28;20041;-86
2021/05/12 08:47:58;;;;;;;6.45;1.75;;;;;;;;;;5034189;28;19921;-85
2021/05/12 08:50:25;;;;;;;3.20;1.52;;;;;;;;;;5050593;28;20072;-86
2021/05/12 08:52:51;;;;;;;6.97;1.60;;;;;;;;;;5050531;28;20040;-85
2021/05/12 08:55:17;;;;;;;2.88;1.35;;;;;;;;;;5050428;28;20072;-85
2021/05/12 08:57:43;;;;;;;4.68;1.67;;;;;;;;;;5035015;28;20038;-85
2021/05/12 09:00:10;;;;;;;3.70;1.23;;;;;;;;;;5050224;28;20096;-85
2021/05/12 09:02:36;;;;;;;2.88;1.63;;;;;;;;;;5035007;28;20049;-85
2021/05/12 09:05:04;;;;;;;4.13;1.40;;;;;;;;;;5050380;28;20397;-86
2021/05/12 09:07:30;;;;;;;4.38;1.95;;;;;;;;;;5035104;28;20389;-85
2021/05/12 09:09:56;;;;;;;3.83;1.35;;;;;;;;;;5050048;28;20073;-85
2021/05/12 09:12:22;;;;;;;3.55;1.40;;;;;;;;;;5050173;28;20649;-85
2021/05/12 09:14:54;;;;;;;1.98;1.20;;;;;;;;;;5034845;28;20438;-85
2021/05/12 09:17:31;;;;;;;4.72;1.50;;;;;;;;;;5034389;28;20036;-85
2021/05/12 09:19:57;;;;;;;5.00;1.67;;;;;;;;;;5049901;28;20037;-85
2021/05/12 09:22:23;;;;;;;3.35;1.15;;;;;;;;;;5049978;28;20037;-83
2021/05/12 09:24:50;;;;;;;4.10;1.33;;;;;;;;;;5034591;28;20041;-84
2021/05/12 09:27:19;;;;;;;3.13;1.27;;;;;;;;;;5049816;28;20060;-87
2021/05/12 09:29:46;;;;;;;4.35;1.10;;;;;;;;;;5049635;28;20051;-86
2021/05/12 09:32:13;;;;;;;4.75;1.30;;;;;;;;;;5035591;28;20038;-87
2021/05/12 09:34:51;;;;;;;3.95;1.30;;;;;;;;;;5053272;28;20040;-86
2021/05/12 09:37:24;;;;;;;4.35;1.40;;;;;;;;;;5034282;28;20496;-86
2021/05/12 09:39:50;;;;;;;4.00;1.10;;;;;;;;;;5034785;28;20057;-85
2021/05/12 09:42:19;;;;;;;6.22;1.10;;;;;;;;;;5033290;28;20049;-84
2021/05/12 09:45:07;;;;;;;3.13;1.00;;;;;;;;;;5049686;28;20045;-85
2021/05/12 09:47:33;;;;;;;3.85;1.38;;;;;;;;;;5049587;28;20131;-86
2021/05/12 09:49:59;;;;;;;2.85;1.05;;;;;;;;;;5051473;28;20637;-86
2021/05/12 09:52:29;;;;;;;5.00;1.17;;;;;;;;;;5063979;28;20184;-85
2021/05/12 09:55:03;;;;;;;2.67;1.13;;;;;;;;;;5069332;28;20499;-86
2021/05/12 09:57:29;;;;;;;4.97;1.38;;;;;;;;;;5052664;28;20045;-85
2021/05/12 09:59:55;;;;;;;3.97;1.20;;;;;;;;;;5052977;28;20068;-85
2021/05/12 10:02:21;;;;;;;5.28;1.25;;;;;;;;;;5052071;28;20477;-85
2021/05/12 10:04:49;;;;;;;4.63;1.15;;;;;;;;;;5052793;28;20116;-87
2021/05/12 10:07:15;;;;;;;4.93;1.20;;;;;;;;;;5036143;28;20041;-88
2021/05/12 10:09:43;;;;;;;3.40;1.10;;;;;;;;;;5053679;28;20097;-84
2021/05/12 10:12:10;;;;;;;4.60;1.30;;;;;;;;;;5031111;28;20041;-83
2021/05/12 10:14:36;;;;;;;3.80;1.02;;;;;;;;;;5037140;28;20076;-85
2021/05/12 10:17:03;;;;;;;3.15;1.08;;;;;;;;;;5053044;28;20079;-82
2021/05/12 10:19:29;;;;;;;4.70;0.90;;;;;;;;;;5051551;28;20116;-83
2021/05/12 10:21:59;;;;;;;3.60;1.15;;;;;;;;;;5051506;28;20384;-83
2021/05/12 10:24:25;;;;;;;5.60;1.17;;;;;;;;;;5053154;28;20163;-84
2021/05/12 10:26:51;;;;;;;5.93;1.33;;;;;;;;;;5051504;28;20117;-84
2021/05/12 10:29:18;;;;;;;4.68;1.15;;;;;;;;;;5053043;28;20044;-84
2021/05/12 10:31:44;;;;;;;5.78;1.67;;;;;;;;;;5068587;28;20119;-84
2021/05/12 10:34:10;;;;;;;4.40;1.30;;;;;;;;;;5068527;28;20113;-84
2021/05/12 10:36:38;;;;;;;2.97;0.93;;;;;;;;;;5067728;28;20068;-89
2021/05/12 10:39:04;;;;;;;6.28;1.10;;;;;;;;;;5035755;28;20033;-85
2021/05/12 10:41:40;;;;;;;6.85;1.10;;;;;;;;;;5051672;28;20080;-83
2021/05/12 10:46:45;;;;;;;5.22;1.17;;;;;;;;;;5051805;28;20041;-85
2021/05/12 10:49:11;;;;;;;6.43;1.48;;;;;;;;;;5051754;28;20397;-82
2021/05/12 10:51:37;;;;;;;4.70;1.13;;;;;;;;;;5051567;28;20123;-82
2021/05/12 10:54:08;;;;;;;3.75;1.15;;;;;;;;;;5051536;28;20073;-83
2021/05/12 10:56:34;;;;;;;7.15;1.58;;;;;;;;;;5051853;28;20033;-83
2021/05/12 10:59:07;;;;;;;6.57;1.30;;;;;;;;;;5052627;28;20041;-83
2021/05/12 11:01:51;;;;;;;5.72;1.50;;;;;;;;;;5052543;28;20052;-83
2021/05/12 11:04:22;;;;;;;5.00;1.17;;;;;;;;;;5052367;28;20033;-83
2021/05/12 11:06:52;;;;;;;3.58;1.17;;;;;;;;;;5051317;28;20048;-83
2021/05/12 11:09:19;;;;;;;4.72;1.30;;;;;;;;;;5051353;28;20048;-83
2021/05/12 11:11:45;;;;;;;4.78;1.30;;;;;;;;;;5051204;28;20051;-84
2021/05/12 11:14:20;;;;;;;5.28;1.10;;;;;;;;;;5052483;28;20186;-82
2021/05/12 11:17:05;;;;;;;7.50;1.23;;;;;;;;;;5052394;28;20063;-82
2021/05/12 11:19:35;;;;;;;4.43;1.20;;;;;;;;;;5051071;28;20114;-83
2021/05/12 11:22:21;;;;;;;4.20;1.30;;;;;;;;;;5031159;28;20037;-82
2021/05/12 11:24:52;;;;;;;4.65;1.55;;;;;;;;;;5047520;28;20076;-82
2021/05/12 11:28:00;;;;;;;2.15;1.05;;;;;;;;;;5031103;28;20042;-82
2021/05/12 11:32:56;;;;;;;4.88;1.00;;;;;;;;;;5031286;28;20073;-82
2021/05/12 11:35:22;;;;;;;6.13;1.23;;;;;;;;;;5031079;28;20439;-82
2021/05/12 11:37:49;;;;;;;5.53;1.25;;;;;;;;;;5032065;28;20078;-83
2021/05/12 11:40:16;;;;;;;7.10;1.52;;;;;;;;;;5047344;28;20081;-83
2021/05/12 11:42:42;;;;;;;3.40;1.08;;;;;;;;;;5032207;28;20060;-82
2021/05/12 11:45:09;;;;;;;7.60;1.92;;;;;;;;;;5032060;28;20082;-82
2021/05/12 11:47:38;;;;;;;5.75;1.30;;;;;;;;;;5030961;28;20071;-82
2021/05/12 11:50:05;;;;;;;6.03;1.67;;;;;;;;;;5031526;28;20037;-83
2021/05/12 11:52:32;;;;;;;6.82;1.45;;;;;;;;;;5030658;28;20504;-82
2021/05/12 11:55:07;;;;;;;7.13;1.20;;;;;;;;;;5031868;28;20052;-82
2021/05/12 11:57:33;;;;;;;6.30;1.17;;;;;;;;;;5031855;28;20041;-82
2021/05/12 12:00:04;;;;;;;4.32;1.38;;;;;;;;;;5030842;28;20045;-83
2021/05/12 12:02:30;;;;;;;5.25;1.23;;;;;;;;;;5047255;28;20038;-83
2021/05/12 12:05:02;;;;;;;6.30;1.60;;;;;;;;;;5031749;28;20068;-82
2021/05/12 12:07:29;;;;;;;7.30;1.25;;;;;;;;;;5030733;28;20121;-82
2021/05/12 12:10:01;;;;;;;5.90;1.10;;;;;;;;;;5031983;28;20068;-83
2021/05/12 12:12:28;;;;;;;7.32;1.50;;;;;;;;;;5031922;28;20033;-83
2021/05/12 12:15:03;;;;;;;8.52;1.65;;;;;;;;;;5034758;28;20041;-83
2021/05/12 12:17:29;;;;;;;5.88;1.17;;;;;;;;;;5034560;28;20060;-83
2021/05/12 12:20:05;;;;;;;4.28;1.40;;;;;;;;;;5035787;28;20076;-83
2021/05/12 12:22:31;;;;;;;4.35;1.25;;;;;;;;;;5036008;28;20041;-83
2021/05/12 12:25:18;;;;;;;5.90;1.20;;;;;;;;;;5035803;28;20091;-84
2021/05/12 12:27:45;;;;;;;13.23;1.90;;;;;;;;;;5035621;28;20045;-84
2021/05/12 12:30:14;;;;;;;9.70;2.03;;;;;;;;;;5035787;28;20120;-84
2021/05/12 12:32:40;;;;;;;6.22;1.20;;;;;;;;;;5034546;28;20370;-84
2021/05/12 12:35:06;;;;;;;6.70;1.40;;;;;;;;;;5045780;28;20505;-84
2021/05/12 12:37:34;;;;;;;9.82;1.35;;;;;;;;;;5037667;28;20060;-85
2021/05/12 12:40:04;;;;;;;5.93;1.50;;;;;;;;;;5053909;28;20088;-83
2021/05/12 12:42:31;;;;;;;8.70;1.33;;;;;;;;;;5055151;28;20079;-83
2021/05/12 12:44:57;;;;;;;8.70;1.60;;;;;;;;;;5054006;28;20037;-85
2021/05/12 12:47:23;;;;;;;3.80;1.20;;;;;;;;;;5054045;28;20095;-83
2021/05/12 12:49:54;;;;;;;7.15;1.20;;;;;;;;;;5054435;28;20441;-83
2021/05/12 12:52:24;;;;;;;6.03;1.58;;;;;;;;;;5052455;28;20040;-82
2021/05/12 12:55:02;;;;;;;4.13;1.17;;;;;;;;;;5070395;28;20037;-82
2021/05/12 12:57:41;;;;;;;6.80;1.70;;;;;;;;;;5053786;28;20056;-83
2021/05/12 13:00:11;;;;;;;7.22;1.27;;;;;;;;;;5055004;28;20095;-83
2021/05/12 13:02:38;;;;;;;6.50;1.38;;;;;;;;;;5055991;28;20033;-83
2021/05/12 13:05:19;;;;;;;4.30;1.15;;;;;;;;;;5041309;28;20044;-83
2021/05/12 13:07:46;;;;;;;5.20;1.45;;;;;;;;;;5066300;28;20107;-84
2021/05/12 13:10:24;;;;;;;7.88;1.60;;;;;;;;;;5067762;28;20128;-83
2021/05/12 13:12:50;;;;;;;6.03;1.10;;;;;;;;;;5034761;28;20037;-83
2021/05/12 13:15:20;;;;;;;6.13;1.48;;;;;;;;;;5033556;28;20052;-83
2021/05/12 13:17:56;;;;;;;9.13;1.52;;;;;;;;;;5033403;28;20047;-83
2021/05/12 13:20:22;;;;;;;5.07;1.30;;;;;;;;;;5033393;28;20432;-83
2021/05/12 13:23:01;;;;;;;4.80;1.00;;;;;;;;;;5033351;28;20458;-83
2021/05/12 13:25:27;;;;;;;8.93;1.60;;;;;;;;;;5032485;28;20041;-84
2021/05/12 13:27:54;;;;;;;4.43;1.25;;;;;;;;;;5017043;28;20050;-84
2021/05/12 13:30:20;;;;;;;5.25;1.10;;;;;;;;;;5016812;28;20046;-85
2021/05/12 13:32:46;;;;;;;7.22;1.30;;;;;;;;;;5033227;28;20041;-83
2021/05/12 13:35:12;;;;;;;5.47;1.35;;;;;;;;;;5033259;28;20493;-83
2021/05/12 13:37:38;;;;;;;22.08;2.28;;;;;;;;;;5033221;28;20065;-82
2021/05/12 13:40:05;;;;;;;7.75;2.10;;;;;;;;;;5032896;28;20045;-84
2021/05/12 13:42:31;;;;;;;5.55;1.20;;;;;;;;;;5034274;28;20047;-83
2021/05/12 13:44:57;;;;;;;3.95;1.00;;;;;;;;;;5032523;28;20037;-83
2021/05/12 13:47:23;;;;;;;5.97;1.30;;;;;;;;;;5016584;28;20060;-83
2021/05/12 13:49:49;;;;;;;5.65;1.10;;;;;;;;;;5032820;28;20038;-83
2021/05/12 13:52:23;;;;;;;5.07;1.30;;;;;;;;;;5032912;28;20492;-81
2021/05/12 13:54:54;;;;;;;7.22;1.05;;;;;;;;;;5017556;28;20091;-83
2021/05/12 13:57:31;;;;;;;6.70;2.03;;;;;;;;;;5032921;28;20037;-83
2021/05/12 14:02:53;;;;;;;11.23;1.25;;;;;;;;;;5034144;28;20116;-82
2021/05/12 14:05:19;;;;;;;8.32;1.10;;;;;;;;;;5032880;28;20405;-83
2021/05/12 14:07:46;;;;;;;7.25;1.40;;;;;;;;;;5032493;28;20037;-83
2021/05/12 14:10:15;;;;;;;4.68;0.88;;;;;;;;;;5032638;28;20041;-83
2021/05/12 14:12:44;;;;;;;8.30;1.60;;;;;;;;;;5032730;28;20041;-83
2021/05/12 14:17:55;;;;;;;6.15;1.50;;;;;;;;;;5033679;28;20042;-83
2021/05/12 14:20:21;;;;;;;4.40;1.00;;;;;;;;;;5033533;28;20045;-82
2021/05/12 14:22:47;;;;;;;6.82;1.30;;;;;;;;;;5032313;28;20073;-82
2021/05/12 14:25:13;;;;;;;6.47;1.10;;;;;;;;;;5032226;28;20041;-83
2021/05/12 14:27:41;;;;;;;6.32;1.20;;;;;;;;;;5015957;28;20049;-83
2021/05/12 14:30:08;;;;;;;9.30;1.20;;;;;;;;;;5032169;28;20045;-83
2021/05/12 14:32:34;;;;;;;4.18;1.20;;;;;;;;;;5032105;28;20041;-83
2021/05/12 14:35:02;;;;;;;8.18;1.30;;;;;;;;;;5032062;28;20048;-83
2021/05/12 14:37:28;;;;;;;6.53;1.48;;;;;;;;;;5031963;28;20041;-83
2021/05/12 14:39:55;;;;;;;7.63;1.60;;;;;;;;;;5032051;28;20106;-83
2021/05/12 14:42:22;;;;;;;5.18;1.00;;;;;;;;;;5015697;28;20155;-83
2021/05/12 14:44:48;;;;;;;3.33;1.27;;;;;;;;;;5031982;28;20041;-82
2021/05/12 14:47:14;;;;;;;5.65;1.30;;;;;;;;;;5037684;28;20040;-83
2021/05/12 14:49:41;;;;;;;6.88;1.20;;;;;;;;;;5052619;28;20479;-83